Pinos Altos, New Mexico
Current Conditions -  °F | °C
As of 9:55 PM on Monday 20 Oct 2014 (Local Time) from KSVC Reporting Station
Broken Clouds Broken Clouds  
Wind Chill: 55°   Ceiling: 3200
Heat Index: 55°   Visibility: 10mi
Dew Point: 50°   Wind: 9mph
Humidity: 82%   Direction: 110°ESE
Pressure: 30.18"   Gusts: NA
Location:  32.87°N, 108.22°W
Report Text: KSVC 210355Z AUTO 11008KT 10SM BKN032 BKN037 BKN080 13/10 A3018 RMK AO2
Loading
Personal Weather Stations






























Interactive Weather Map New forecast layout! Learn more

10-Day Weather Forecast

Advertisements
Track Severe Weather on mobile